Terminal Aerodrome Forecast
Issued by NWS San Angelo, TX

Home | Current Version | Previous Version | Text Only | Print | Product List | Glossary On
Versions: 1 2 3 4 5 6 7 8 9 10 11 12 13 14 15 16 17 18 19 20 21 22 23
000
FTUS44 KSJT 021100
TAFABI
TAF
KABI 021124Z 0212/0312 02009KT 3SM BR OVC005
      TEMPO 0212/0215 2SM -FZDZ BR OVC004
     FM021500 02007KT 3SM BR OVC004
     FM022000 03005KT P6SM OVC008
     FM022300 06005KT P6SM OVC012
     FM030300 14009KT 4SM BR OVC004=

USA.gov is the U.S. government's official web portal to all federal, state and local government web resources and services.